createdAt,value
2022-09-07T00:00:18.711Z,72.98
2022-09-07T00:01:13.909Z,72.85
2022-09-07T00:02:08.859Z,72.79
2022-09-07T00:03:03.922Z,73.56
2022-09-07T00:03:58.858Z,72.35
2022-09-07T00:04:57.153Z,73.23
2022-09-07T00:05:52.195Z,73.69
2022-09-07T00:06:47.238Z,72.79
2022-09-07T00:07:42.267Z,71.48
2022-09-07T00:08:37.305Z,70.51
2022-09-07T00:09:32.335Z,70.16
2022-09-07T00:10:27.342Z,69.28
2022-09-07T00:11:22.477Z,68.88
2022-09-07T00:12:17.391Z,69.00
2022-09-07T00:13:12.392Z,69.92
2022-09-07T00:14:07.439Z,70.16
2022-09-07T00:15:02.443Z,70.57
2022-09-07T00:15:57.717Z,70.81
2022-09-07T00:16:52.698Z,70.21
2022-09-07T00:17:47.705Z,69.11
2022-09-07T00:18:46.087Z,67.87
2022-09-07T00:19:37.806Z,67.60
2022-09-07T00:20:32.920Z,67.11
2022-09-07T00:21:27.913Z,67.27
2022-09-07T00:22:23.151Z,67.22
2022-09-07T00:23:18.427Z,66.31
2022-09-07T00:24:13.590Z,65.89
2022-09-07T00:25:08.859Z,65.17
2022-09-07T00:26:04.237Z,64.82
2022-09-07T00:26:59.231Z,64.36
2022-09-07T00:27:54.356Z,63.82
2022-09-07T00:28:49.586Z,62.86
2022-09-07T00:29:44.789Z,61.47
2022-09-07T00:30:39.890Z,60.85
2022-09-07T00:31:35.053Z,61.07
2022-09-07T00:32:30.166Z,60.71
2022-09-07T00:33:25.516Z,60.58
2022-09-07T00:34:20.626Z,61.43
2022-09-07T00:35:15.978Z,62.25
2022-09-07T00:36:11.502Z,63.29
2022-09-07T00:37:06.495Z,64.46
2022-09-07T00:38:01.635Z,65.43
2022-09-07T00:38:56.798Z,66.57
2022-09-07T00:39:52.096Z,68.15
2022-09-07T00:40:47.230Z,69.80
2022-09-07T00:41:42.486Z,71.54
2022-09-07T00:42:37.772Z,73.75
2022-09-07T00:43:32.971Z,75.69
2022-09-07T00:44:28.184Z,77.16
2022-09-07T00:45:23.555Z,78.84
2022-09-07T00:46:18.604Z,80.51
2022-09-07T00:47:13.784Z,80.82
2022-09-07T00:48:08.956Z,81.46
2022-09-07T00:49:04.161Z,80.59
2022-09-07T00:49:59.534Z,79.74
2022-09-07T00:50:54.646Z,78.54
2022-09-07T00:51:49.851Z,76.95
2022-09-07T00:52:44.972Z,75.21
2022-09-07T00:53:40.362Z,73.95
2022-09-07T00:54:35.573Z,74.01
2022-09-07T00:55:30.679Z,73.23
2022-09-07T00:56:25.904Z,73.11
2022-09-07T00:57:20.992Z,72.79
2022-09-07T00:58:16.240Z,72.10
2022-09-07T00:59:11.629Z,71.11
2022-09-07T01:00:06.585Z,70.33
2022-09-07T01:01:01.812Z,69.28
2022-09-07T01:01:57.074Z,68.82
2022-09-07T01:02:52.223Z,67.38
2022-09-07T01:03:47.108Z,66.79
2022-09-07T01:04:42.209Z,66.52
2022-09-07T01:05:37.229Z,65.94
2022-09-07T01:06:32.230Z,65.37
2022-09-07T01:07:27.260Z,64.86
2022-09-07T01:08:22.285Z,63.53
2022-09-07T01:09:17.322Z,63.00
2022-09-07T01:10:12.426Z,62.21
2022-09-07T01:11:07.505Z,61.56
2022-09-07T01:12:02.825Z,60.32
2022-09-07T01:12:57.968Z,59.37
2022-09-07T01:13:53.067Z,58.50
2022-09-07T01:14:48.356Z,58.09
2022-09-07T01:15:43.542Z,57.93
2022-09-07T01:16:38.624Z,57.97
2022-09-07T01:17:33.855Z,58.13
2022-09-07T01:18:29.095Z,58.42
2022-09-07T01:19:24.193Z,59.20
2022-09-07T01:20:20.003Z,60.36
2022-09-07T01:21:15.191Z,61.47
2022-09-07T01:22:10.994Z,62.11
2022-09-07T01:23:06.277Z,62.77
2022-09-07T01:24:01.433Z,63.39
2022-09-07T01:24:57.244Z,63.58
2022-09-07T01:25:52.413Z,64.07
2022-09-07T01:26:47.632Z,64.56
2022-09-07T01:27:44.169Z,64.07
2022-09-07T01:28:39.335Z,64.32
2022-09-07T01:29:35.200Z,63.92
2022-09-07T01:30:30.372Z,63.92
2022-09-07T01:31:25.538Z,64.76
2022-09-07T01:32:21.371Z,64.56
2022-09-07T01:33:16.650Z,64.86
2022-09-07T01:34:12.508Z,66.05
2022-09-07T01:35:07.619Z,67.38
2022-09-07T01:36:03.049Z,69.46
2022-09-07T01:36:58.924Z,71.23
2022-09-07T01:37:57.049Z,73.23
2022-09-07T01:38:49.589Z,75.21
2022-09-07T01:39:44.654Z,76.18
2022-09-07T01:40:39.716Z,78.32
2022-09-07T01:41:34.900Z,80.20
2022-09-07T01:42:30.141Z,81.38
2022-09-07T01:43:25.380Z,81.86
2022-09-07T01:44:20.280Z,82.18
2022-09-07T01:45:15.306Z,82.26
2022-09-07T01:46:10.447Z,82.34
2022-09-07T01:47:05.429Z,82.10
2022-09-07T01:48:00.615Z,82.58
2022-09-07T01:48:55.634Z,82.42
2022-09-07T01:49:52.347Z,81.86
2022-09-07T01:50:47.392Z,81.22
2022-09-07T01:51:42.443Z,79.52
2022-09-07T01:52:37.436Z,78.76
2022-09-07T01:53:32.536Z,77.52
2022-09-07T01:54:27.655Z,76.88
2022-09-07T01:55:22.746Z,75.69
2022-09-07T01:56:17.754Z,74.68
2022-09-07T01:57:12.796Z,74.81
2022-09-07T01:58:07.894Z,73.88
2022-09-07T01:59:02.908Z,73.17
2022-09-07T01:59:58.015Z,72.98
2022-09-07T02:00:53.164Z,72.28
2022-09-07T02:01:48.435Z,72.53
2022-09-07T02:02:43.793Z,72.47
2022-09-07T02:03:39.421Z,72.16
2022-09-07T02:04:34.581Z,72.60
2022-09-07T02:05:30.451Z,72.35
2022-09-07T02:06:25.713Z,72.16
2022-09-07T02:07:21.096Z,71.97
2022-09-07T02:08:16.861Z,70.75
2022-09-07T02:09:11.959Z,70.81
2022-09-07T02:10:07.067Z,69.92
2022-09-07T02:11:03.579Z,69.17
2022-09-07T02:11:58.884Z,69.00
2022-09-07T02:12:54.660Z,69.57
2022-09-07T02:13:49.882Z,70.10
2022-09-07T02:14:48.288Z,70.87
2022-09-07T02:15:41.927Z,71.72
2022-09-07T02:16:36.121Z,73.82
2022-09-07T02:17:31.929Z,76.39
2022-09-07T02:18:27.228Z,76.39
2022-09-07T02:19:22.375Z,77.09
2022-09-07T02:20:17.594Z,78.32
2022-09-07T02:21:12.736Z,78.91
2022-09-07T02:22:09.284Z,79.21
2022-09-07T02:23:04.454Z,79.29
2022-09-07T02:24:00.276Z,78.62
2022-09-07T02:24:55.477Z,77.74
2022-09-07T02:25:50.770Z,76.88
2022-09-07T02:26:46.493Z,75.90
2022-09-07T02:27:41.604Z,75.42
2022-09-07T02:28:37.423Z,75.08
2022-09-07T02:29:32.496Z,75.08
2022-09-07T02:30:27.899Z,74.74
2022-09-07T02:31:23.702Z,73.43
2022-09-07T02:32:18.873Z,73.49
2022-09-07T02:33:13.972Z,72.72
2022-09-07T02:34:10.424Z,72.35
2022-09-07T02:35:05.737Z,72.22
2022-09-07T02:36:01.452Z,71.91
2022-09-07T02:36:56.761Z,71.72
2022-09-07T02:37:51.873Z,70.81
2022-09-07T02:38:47.092Z,71.05
2022-09-07T02:39:42.492Z,71.54
2022-09-07T02:40:37.460Z,72.28
2022-09-07T02:41:32.711Z,72.10
2022-09-07T02:42:28.551Z,72.60
2022-09-07T02:43:23.780Z,72.72
2022-09-07T02:44:19.132Z,73.04
2022-09-07T02:45:14.827Z,71.36
2022-09-07T02:46:10.224Z,69.63
2022-09-07T02:47:05.538Z,68.82
2022-09-07T02:48:00.489Z,68.60
2022-09-07T02:48:55.568Z,68.43
2022-09-07T02:49:50.679Z,68.71
2022-09-07T02:50:45.779Z,69.22
2022-09-07T02:51:40.888Z,68.54
2022-09-07T02:52:35.883Z,68.37
2022-09-07T02:53:30.967Z,68.49
2022-09-07T02:54:25.989Z,68.94
2022-09-07T02:55:21.087Z,69.69
2022-09-07T02:56:16.222Z,69.75
2022-09-07T02:57:11.377Z,69.98
2022-09-07T02:58:06.269Z,70.21
2022-09-07T02:59:01.390Z,70.75
2022-09-07T02:59:56.513Z,71.17
2022-09-07T03:00:51.724Z,72.41
2022-09-07T03:01:46.959Z,73.04
2022-09-07T03:02:42.036Z,73.82
2022-09-07T03:03:37.005Z,73.49
2022-09-07T03:04:32.113Z,73.75
2022-09-07T03:05:27.204Z,74.94
2022-09-07T03:06:22.208Z,76.46
2022-09-07T03:07:17.320Z,77.02
2022-09-07T03:08:12.454Z,76.95
2022-09-07T03:09:10.394Z,77.67
2022-09-07T03:10:05.519Z,78.25
2022-09-07T03:11:00.661Z,78.39
2022-09-07T03:11:55.909Z,79.14
2022-09-07T03:12:51.020Z,79.74
2022-09-07T03:13:46.124Z,79.29
2022-09-07T03:14:41.252Z,78.99
2022-09-07T03:15:36.308Z,79.82
2022-09-07T03:16:31.272Z,80.51
2022-09-07T03:17:26.366Z,79.90
2022-09-07T03:18:21.478Z,79.82
2022-09-07T03:19:16.537Z,80.28
2022-09-07T03:20:11.602Z,80.51
2022-09-07T03:21:11.023Z,80.28
2022-09-07T03:22:06.108Z,78.76
2022-09-07T03:23:01.140Z,78.54
2022-09-07T03:23:56.128Z,78.18
2022-09-07T03:24:51.162Z,78.10
2022-09-07T03:25:46.249Z,78.62
2022-09-07T03:26:41.334Z,80.05
2022-09-07T03:27:36.302Z,80.98
2022-09-07T03:28:31.633Z,81.62
2022-09-07T03:29:26.606Z,82.58
2022-09-07T03:30:21.609Z,83.49
2022-09-07T03:31:16.645Z,85.20
2022-09-07T03:32:11.661Z,86.08
2022-09-07T03:33:06.635Z,88.26
2022-09-07T03:34:01.790Z,90.66
2022-09-07T03:34:57.709Z,93.72
2022-09-07T03:35:52.819Z,95.21
2022-09-07T03:36:48.757Z,94.92
2022-09-07T03:37:43.860Z,97.82
2022-09-07T03:38:39.233Z,98.98
2022-09-07T03:39:35.269Z,100.83
2022-09-07T03:40:30.287Z,103.07
2022-09-07T03:41:25.684Z,104.36
2022-09-07T03:42:21.829Z,104.30
2022-09-07T03:43:17.015Z,106.09
2022-09-07T03:44:12.894Z,107.18
2022-09-07T03:45:08.035Z,107.94
2022-09-07T03:46:03.549Z,108.93
2022-09-07T03:46:59.159Z,109.43
2022-09-07T03:47:54.477Z,110.22
2022-09-07T03:48:50.298Z,110.44
2022-09-07T03:49:45.585Z,111.62
2022-09-07T03:50:40.601Z,110.08
2022-09-07T03:51:35.668Z,110.22
2022-09-07T03:52:30.746Z,110.37
2022-09-07T03:53:26.156Z,109.93
2022-09-07T03:54:20.971Z,109.93
2022-09-07T03:55:15.997Z,110.22
2022-09-07T03:56:11.000Z,109.79
2022-09-07T03:57:05.995Z,109.57
2022-09-07T03:58:01.050Z,108.71
2022-09-07T03:58:56.098Z,109.86
2022-09-07T03:59:51.139Z,109.00
2022-09-07T04:00:46.161Z,108.01
2022-09-07T04:01:41.379Z,107.25
2022-09-07T04:02:36.327Z,105.62
2022-09-07T04:03:35.439Z,105.48
2022-09-07T04:04:30.478Z,104.62
2022-09-07T04:05:25.655Z,104.82
2022-09-07T04:06:20.668Z,105.55
2022-09-07T04:07:15.730Z,105.89
2022-09-07T04:08:10.788Z,106.49
2022-09-07T04:09:05.861Z,105.55
2022-09-07T04:10:01.051Z,104.10
2022-09-07T04:10:55.924Z,103.07
2022-09-07T04:11:50.996Z,100.71
2022-09-07T04:12:49.613Z,97.36
2022-09-07T04:13:44.689Z,96.91
2022-09-07T04:14:39.786Z,97.53
2022-09-07T04:15:35.026Z,97.76
2022-09-07T04:16:30.091Z,97.30
2022-09-07T04:17:25.075Z,97.53
2022-09-07T04:18:20.197Z,96.68
2022-09-07T04:19:15.190Z,96.24
2022-09-07T04:20:10.643Z,95.58
2022-09-07T04:21:05.743Z,95.74
2022-09-07T04:22:00.886Z,95.85
2022-09-07T04:22:56.726Z,95.25
2022-09-07T04:23:51.853Z,95.36
2022-09-07T04:24:47.654Z,95.19
2022-09-07T04:25:42.909Z,95.36
2022-09-07T04:26:38.236Z,95.03
2022-09-07T04:27:34.096Z,94.49
2022-09-07T04:28:29.358Z,94.33
2022-09-07T04:29:24.611Z,95.32
2022-09-07T04:30:20.944Z,94.14
2022-09-07T04:31:16.195Z,93.19
2022-09-07T04:32:15.724Z,92.88
2022-09-07T04:33:07.260Z,93.09
2022-09-07T04:34:02.639Z,92.47
2022-09-07T04:34:58.224Z,91.36
2022-09-07T04:35:53.519Z,92.16
2022-09-07T04:36:49.401Z,92.26
2022-09-07T04:37:44.487Z,92.06
2022-09-07T04:38:39.941Z,92.88
2022-09-07T04:39:35.832Z,94.25
2022-09-07T04:40:30.910Z,94.39
2022-09-07T04:41:26.198Z,95.85
2022-09-07T04:42:22.513Z,96.68
2022-09-07T04:43:17.725Z,96.24
2022-09-07T04:44:16.778Z,96.18
2022-09-07T04:45:08.743Z,96.91
2022-09-07T04:46:04.043Z,97.08
2022-09-07T04:46:59.838Z,96.91
2022-09-07T04:47:55.216Z,95.90
2022-09-07T04:48:50.897Z,94.71
2022-09-07T04:49:46.245Z,95.65
2022-09-07T04:50:41.673Z,95.25
2022-09-07T04:51:37.375Z,97.13
2022-09-07T04:52:32.636Z,99.04
2022-09-07T04:53:28.255Z,100.11
2022-09-07T04:54:24.366Z,100.29
2022-09-07T04:55:19.706Z,99.69
2022-09-07T04:56:17.039Z,100.11
2022-09-07T04:57:10.786Z,99.99
2022-09-07T04:58:06.175Z,99.81
2022-09-07T04:59:01.981Z,100.11
2022-09-07T04:59:57.353Z,99.39
2022-09-07T05:00:53.096Z,99.33
2022-09-07T05:01:48.450Z,99.21
2022-09-07T05:02:43.989Z,99.69
2022-09-07T05:03:39.617Z,99.27
2022-09-07T05:04:34.904Z,98.16
2022-09-07T05:05:30.193Z,99.04
2022-09-07T05:06:26.507Z,100.71
2022-09-07T05:07:21.871Z,102.25
2022-09-07T05:08:17.625Z,103.65
2022-09-07T05:09:12.962Z,104.49
2022-09-07T05:10:08.289Z,103.84
2022-09-07T05:11:04.050Z,103.84
2022-09-07T05:11:59.475Z,102.57
2022-09-07T05:12:55.259Z,101.01
2022-09-07T05:13:50.430Z,99.27
2022-09-07T05:14:45.698Z,98.45
2022-09-07T05:15:41.580Z,95.96
2022-09-07T05:16:36.945Z,94.17
2022-09-07T05:17:32.334Z,94.57
2022-09-07T05:18:28.663Z,93.09
2022-09-07T05:19:24.044Z,89.21
2022-09-07T05:20:20.363Z,86.08
2022-09-07T05:21:14.753Z,84.77
2022-09-07T05:22:10.707Z,85.29
2022-09-07T05:23:05.887Z,85.64
2022-09-07T05:24:01.342Z,86.43
2022-09-07T05:24:57.343Z,88.08
2022-09-07T05:25:52.448Z,89.59
2022-09-07T05:26:47.924Z,91.16
2022-09-07T05:27:44.045Z,89.69
2022-09-07T05:28:39.355Z,87.80
2022-09-07T05:30:06.160Z,89.30
2022-09-07T05:31:28.574Z,91.26
2022-09-07T05:32:22.979Z,91.76
2022-09-07T05:33:18.889Z,92.68
2022-09-07T05:34:30.188Z,92.78
2022-09-07T05:35:11.294Z,92.57
2022-09-07T05:36:05.586Z,92.88
2022-09-07T05:37:00.969Z,94.14
2022-09-07T05:37:57.451Z,95.21
2022-09-07T05:38:52.805Z,94.82
2022-09-07T05:39:48.456Z,96.07
2022-09-07T05:40:44.544Z,94.92
2022-09-07T05:41:39.959Z,94.01
2022-09-07T05:42:35.486Z,95.54
2022-09-07T05:43:31.489Z,95.32
2022-09-07T05:45:23.441Z,94.07
2022-09-07T05:46:17.881Z,94.44
2022-09-07T05:47:12.850Z,94.92
2022-09-07T05:48:07.882Z,95.11
2022-09-07T05:49:03.038Z,95.00
2022-09-07T05:49:58.058Z,95.00
2022-09-07T05:50:53.099Z,93.51
2022-09-07T05:51:48.212Z,92.78
2022-09-07T05:52:43.298Z,92.88
2022-09-07T05:53:38.397Z,91.46
2022-09-07T05:54:33.371Z,90.27
2022-09-07T05:55:30.539Z,88.26
2022-09-07T05:56:23.508Z,85.20
2022-09-07T05:57:18.717Z,81.30
2022-09-07T05:58:14.096Z,77.31
2022-09-07T05:59:10.429Z,74.94
2022-09-07T06:00:05.827Z,73.11
2022-09-07T06:01:01.654Z,72.16
2022-09-07T06:01:57.050Z,71.72
2022-09-07T06:02:52.499Z,71.17
2022-09-07T06:03:48.114Z,71.97
2022-09-07T06:04:43.548Z,73.56
2022-09-07T06:05:39.242Z,75.69
2022-09-07T06:06:34.686Z,77.38
2022-09-07T06:07:30.219Z,77.88
2022-09-07T06:08:25.949Z,80.67
2022-09-07T06:09:21.447Z,83.49
2022-09-07T06:11:14.394Z,84.51
2022-09-07T06:12:08.884Z,84.68
2022-09-07T06:13:04.590Z,84.25
2022-09-07T06:14:00.061Z,85.20
2022-09-07T06:14:55.498Z,86.61
2022-09-07T06:15:51.622Z,87.99
2022-09-07T06:16:46.974Z,87.89
2022-09-07T06:17:42.657Z,86.89
2022-09-07T06:18:38.080Z,85.29
2022-09-07T06:19:33.514Z,84.85
2022-09-07T06:20:29.350Z,84.94
2022-09-07T06:21:24.878Z,84.00
2022-09-07T06:22:20.309Z,82.91
2022-09-07T06:23:16.610Z,81.22
2022-09-07T06:24:11.984Z,79.74
2022-09-07T06:25:07.829Z,77.81
2022-09-07T06:26:03.221Z,76.04
2022-09-07T06:26:58.652Z,75.49
2022-09-07T06:27:54.416Z,73.62
2022-09-07T06:28:51.473Z,71.72
2022-09-07T06:29:45.792Z,70.10
2022-09-07T06:30:41.129Z,68.60
2022-09-07T06:32:48.612Z,64.27
2022-09-07T06:33:28.830Z,63.53
2022-09-07T06:34:23.193Z,63.82
2022-09-07T06:35:18.211Z,64.32
2022-09-07T06:36:13.319Z,64.97
2022-09-07T06:37:08.338Z,65.99
2022-09-07T06:38:03.438Z,65.84
2022-09-07T06:38:58.478Z,66.10
2022-09-07T06:39:53.622Z,66.63
2022-09-07T06:40:48.829Z,67.11
2022-09-07T06:42:05.143Z,67.32
2022-09-07T06:42:46.191Z,69.51
2022-09-07T06:43:45.499Z,70.75
2022-09-07T06:44:37.369Z,72.47
2022-09-07T06:45:32.166Z,73.69
2022-09-07T06:47:24.055Z,74.01
2022-09-07T06:48:18.953Z,73.04
2022-09-07T06:49:14.328Z,73.30
2022-09-07T06:50:09.760Z,72.98
2022-09-07T06:51:06.062Z,72.28
2022-09-07T06:52:01.496Z,72.10
2022-09-07T06:55:04.413Z,73.11
2022-09-07T06:55:44.193Z,72.72
2022-09-07T06:56:38.244Z,73.17
2022-09-07T06:57:33.342Z,74.41
2022-09-07T06:58:28.421Z,75.97
2022-09-07T06:59:23.392Z,76.18
2022-09-07T07:00:18.502Z,76.46
2022-09-07T07:01:13.777Z,76.46
2022-09-07T07:02:08.750Z,77.45
2022-09-07T07:03:03.811Z,78.91
2022-09-07T07:03:58.830Z,80.36
2022-09-07T07:04:53.852Z,81.54
2022-09-07T07:05:48.971Z,82.50
2022-09-07T07:06:44.027Z,83.41
2022-09-07T07:07:39.061Z,84.08
2022-09-07T07:08:38.270Z,84.60
2022-09-07T07:09:33.331Z,85.03
2022-09-07T07:10:28.365Z,84.34
2022-09-07T07:11:23.388Z,83.16
2022-09-07T07:13:44.331Z,69.40
2022-09-07T07:14:44.087Z,68.43
2022-09-07T07:15:36.070Z,70.45
2022-09-07T07:16:30.636Z,71.36
2022-09-07T07:17:26.124Z,71.42
2022-09-07T07:18:21.592Z,71.42
2022-09-07T07:19:17.042Z,71.36
2022-09-07T07:20:12.623Z,71.36
2022-09-07T07:21:08.055Z,72.03
2022-09-07T07:23:00.014Z,77.16
2022-09-07T07:23:54.334Z,77.88
2022-09-07T07:24:49.727Z,76.60
2022-09-07T07:25:45.164Z,76.39
2022-09-07T07:26:40.778Z,76.25
2022-09-07T07:27:36.138Z,75.42
2022-09-07T07:29:28.404Z,77.59
2022-09-07T07:30:22.709Z,79.14
2022-09-07T07:31:18.354Z,79.21
2022-09-07T07:32:13.894Z,79.67
2022-09-07T07:33:09.398Z,80.98
2022-09-07T07:34:04.923Z,82.02
2022-09-07T07:35:00.277Z,81.06
2022-09-07T07:35:55.682Z,78.62
2022-09-07T07:36:51.294Z,75.35
2022-09-07T07:37:46.583Z,72.28
2022-09-07T07:40:36.251Z,79.36
2022-09-07T07:42:24.764Z,83.33
2022-09-07T07:43:19.262Z,85.29
2022-09-07T07:44:14.793Z,87.25
2022-09-07T07:46:06.857Z,89.98
2022-09-07T07:47:01.150Z,91.96
2022-09-07T07:47:56.461Z,92.99
2022-09-07T07:48:52.215Z,92.57
2022-09-07T07:49:47.608Z,89.49
2022-09-07T07:50:42.914Z,87.61
2022-09-07T07:52:50.736Z,87.34
2022-09-07T07:53:45.686Z,87.89
2022-09-07T07:54:25.903Z,86.89
2022-09-07T07:56:16.880Z,88.26
2022-09-07T07:57:11.592Z,86.17
2022-09-07T07:58:06.917Z,81.06
2022-09-07T07:59:02.500Z,76.60
2022-09-07T07:59:57.951Z,76.39
2022-09-07T08:00:55.925Z,79.82
2022-09-07T08:01:48.828Z,80.20
2022-09-07T08:02:44.689Z,83.33
2022-09-07T08:03:39.884Z,84.00
2022-09-07T08:04:35.359Z,85.99
2022-09-07T08:05:30.865Z,90.07
2022-09-07T08:06:26.310Z,91.96
2022-09-07T08:07:21.750Z,93.19
2022-09-07T08:08:17.478Z,95.54
2022-09-07T08:09:12.816Z,96.40
2022-09-07T08:10:08.242Z,97.59
2022-09-07T08:11:03.616Z,101.75
2022-09-07T08:11:59.009Z,104.30
2022-09-07T08:12:54.734Z,105.15
2022-09-07T08:13:50.093Z,107.80
2022-09-07T08:14:45.480Z,113.52
2022-09-07T08:15:40.874Z,116.45
2022-09-07T08:16:36.527Z,119.71
2022-09-07T08:17:31.983Z,122.34
2022-09-07T08:18:27.393Z,126.71
2022-09-07T08:19:23.064Z,129.36
2022-09-07T08:20:18.726Z,131.50
2022-09-07T08:21:14.083Z,134.04
2022-09-07T08:22:09.676Z,134.36
2022-09-07T08:23:04.924Z,131.19
2022-09-07T08:24:00.612Z,130.27
2022-09-07T08:24:56.028Z,133.07
2022-09-07T08:25:51.627Z,136.90
2022-09-07T08:26:47.008Z,141.54
2022-09-07T08:27:42.748Z,143.24
2022-09-07T08:28:38.391Z,143.61
2022-09-07T08:29:35.342Z,142.38
2022-09-07T08:30:29.188Z,141.90
2022-09-07T08:31:24.758Z,140.94
2022-09-07T08:32:20.272Z,137.35
2022-09-07T08:33:15.789Z,137.69
2022-09-07T08:34:11.320Z,139.76
2022-09-07T08:35:06.727Z,139.18
2022-09-07T08:36:02.103Z,138.60
2022-09-07T08:36:57.873Z,135.78
2022-09-07T08:37:53.137Z,132.23
2022-09-07T08:38:48.699Z,122.61
2022-09-07T08:39:44.193Z,121.28
2022-09-07T08:40:39.124Z,122.79
2022-09-07T08:41:34.191Z,128.76
2022-09-07T08:42:29.432Z,135.67
2022-09-07T08:43:24.515Z,139.29
2022-09-07T08:44:19.657Z,140.94
2022-09-07T08:45:14.750Z,143.24
2022-09-07T08:46:09.768Z,149.40
2022-09-07T08:47:04.825Z,141.78
2022-09-07T08:47:59.783Z,134.90
2022-09-07T08:48:55.060Z,140.23
2022-09-07T08:49:50.009Z,145.36
2022-09-07T08:50:45.094Z,142.63
2022-09-07T08:51:40.188Z,143.49
2022-09-07T08:52:35.515Z,145.87
2022-09-07T08:53:31.026Z,151.84
2022-09-07T08:54:26.310Z,157.88
2022-09-07T08:55:21.699Z,160.30
2022-09-07T08:56:17.230Z,161.70
2022-09-07T08:57:28.029Z,161.39
2022-09-07T08:58:18.130Z,162.33
2022-09-07T08:59:04.531Z,162.49
2022-09-07T08:59:58.962Z,162.17
2022-09-07T09:03:28.619Z,160.61
2022-09-07T09:05:16.204Z,168.56
2022-09-07T09:05:31.718Z,170.46
2022-09-07T09:06:11.234Z,161.39
2022-09-07T09:06:25.864Z,163.60
2022-09-07T09:07:20.738Z,162.33
2022-09-07T09:08:15.844Z,165.55
2022-09-07T09:09:11.262Z,166.38
2022-09-07T09:10:08.196Z,164.57
2022-09-07T09:11:03.717Z,164.90
2022-09-07T09:11:59.217Z,164.90
2022-09-07T09:12:54.222Z,166.21
2022-09-07T09:13:49.295Z,166.21
2022-09-07T09:14:44.443Z,164.25
2022-09-07T09:15:39.486Z,163.92
2022-09-07T09:16:34.458Z,173.65
2022-09-07T09:17:29.588Z,179.24
2022-09-07T09:18:24.759Z,181.19
2022-09-07T09:19:19.683Z,183.58
2022-09-07T09:20:14.839Z,176.96
2022-09-07T09:21:09.762Z,168.22
2022-09-07T09:22:05.134Z,175.29
2022-09-07T09:23:00.521Z,183.18
2022-09-07T09:23:56.139Z,187.00
2022-09-07T09:24:51.752Z,186.04
2022-09-07T09:25:47.013Z,178.67
2022-09-07T09:26:42.371Z,174.01
2022-09-07T09:27:37.861Z,162.01
2022-09-07T09:28:33.706Z,169.07
2022-09-07T09:29:28.786Z,168.22
2022-09-07T09:30:24.313Z,174.19
2022-09-07T09:31:20.151Z,173.65
2022-09-07T09:32:15.519Z,176.77
2022-09-07T09:33:14.526Z,177.90
2022-09-07T09:34:09.939Z,171.51
2022-09-07T09:35:05.592Z,171.68
2022-09-07T09:36:01.077Z,163.60
2022-09-07T09:36:56.408Z,165.71
2022-09-07T09:37:52.015Z,173.11
2022-09-07T09:38:47.291Z,185.42
2022-09-07T09:39:42.975Z,186.24
2022-09-07T09:40:38.491Z,193.39
2022-09-07T09:41:34.031Z,193.96
2022-09-07T09:42:29.551Z,191.92
2022-09-07T09:43:25.057Z,187.00
2022-09-07T09:44:20.608Z,187.00
2022-09-07T09:45:15.683Z,189.70
2022-09-07T09:46:12.365Z,185.10
2022-09-07T09:48:02.065Z,193.39
2022-09-07T09:48:56.122Z,201.59
2022-09-07T09:49:51.196Z,203.84
2022-09-07T09:52:45.381Z,218.65
2022-09-07T09:53:32.558Z,227.12
2022-09-07T09:54:26.569Z,225.87
2022-09-07T09:55:34.295Z,228.39
2022-09-07T09:56:21.005Z,237.31
2022-09-07T09:57:15.668Z,241.86
2022-09-07T09:59:56.698Z,237.65
2022-09-07T10:00:05.744Z,229.83
2022-09-07T10:04:02.664Z,227.76
2022-09-07T10:04:39.328Z,224.33
2022-09-07T10:05:33.529Z,214.50
2022-09-07T10:06:28.669Z,203.09
2022-09-07T10:07:23.663Z,183.38
2022-09-07T10:08:18.776Z,186.04
2022-09-07T10:09:13.872Z,187.10
2022-09-07T10:10:09.003Z,198.42
2022-09-07T10:11:04.512Z,201.09
2022-09-07T10:12:08.033Z,190.80
2022-09-07T10:12:56.574Z,195.00
2022-09-07T10:13:51.184Z,212.83
2022-09-07T10:14:46.704Z,228.39
2022-09-07T10:15:42.341Z,236.62
2022-09-07T10:16:37.356Z,241.15
2022-09-07T10:17:32.335Z,254.03
2022-09-07T10:18:27.382Z,245.11
2022-09-07T10:19:25.180Z,262.78
2022-09-07T10:20:20.170Z,303.35
2022-09-07T10:21:15.276Z,328.89
2022-09-07T10:22:10.370Z,334.59
2022-09-07T10:23:05.415Z,331.88
2022-09-07T10:24:00.430Z,328.89
2022-09-07T10:24:55.440Z,356.01
2022-09-07T10:25:50.533Z,365.12
2022-09-07T10:26:46.699Z,375.14
2022-09-07T10:27:41.943Z,371.32
2022-09-07T10:29:36.026Z,374.71
2022-09-07T10:30:28.542Z,390.65
2022-09-07T10:31:24.067Z,391.79
2022-09-07T10:32:19.823Z,374.71
2022-09-07T10:33:15.344Z,389.05
2022-09-07T10:34:26.509Z,395.28
2022-09-07T10:35:07.422Z,400.26
2022-09-07T10:36:01.496Z,408.60
2022-09-07T10:36:56.581Z,385.68
2022-09-07T10:37:51.652Z,365.12
2022-09-07T10:38:46.583Z,347.34
2022-09-07T10:39:41.768Z,325.30
2022-09-07T10:40:36.787Z,333.91
2022-09-07T10:41:31.911Z,328.56
2022-09-07T10:42:28.804Z,335.96
2022-09-07T10:43:23.902Z,352.57
2022-09-07T10:44:19.031Z,353.33
2022-09-07T10:45:14.057Z,346.97
2022-09-07T10:46:09.342Z,364.71
2022-09-07T10:47:04.189Z,376.00
2022-09-07T10:47:59.296Z,359.52
2022-09-07T10:48:54.280Z,342.63
2022-09-07T10:50:46.691Z,354.09
2022-09-07T10:51:41.134Z,363.50
2022-09-07T10:52:36.490Z,390.42
2022-09-07T10:53:47.628Z,423.12
2022-09-07T10:54:30.584Z,437.27
2022-09-07T10:55:23.169Z,429.94
2022-09-07T10:56:18.520Z,420.98
2022-09-07T10:57:14.017Z,399.06
2022-09-07T10:58:09.510Z,367.16
2022-09-07T10:59:04.860Z,367.58
2022-09-07T11:00:14.931Z,352.57
2022-09-07T11:00:55.799Z,341.20
2022-09-07T11:01:49.873Z,355.62
2022-09-07T11:03:24.995Z,376.00
2022-09-07T11:03:41.461Z,418.60
2022-09-07T11:04:35.188Z,428.83
2022-09-07T11:05:37.015Z,454.87
2022-09-07T11:06:29.212Z,464.37
2022-09-07T11:07:23.791Z,435.55
2022-09-07T11:08:19.326Z,425.28
2022-09-07T11:09:17.195Z,430.77
2022-09-07T11:10:10.256Z,433.01
2022-09-07T11:11:05.931Z,413.16
2022-09-07T11:12:02.107Z,391.10
2022-09-07T11:12:56.644Z,376.43
2022-09-07T11:14:11.902Z,369.23
2022-09-07T11:14:48.708Z,378.17
2022-09-07T11:15:43.273Z,392.02
2022-09-07T11:16:54.177Z,395.51
2022-09-07T11:17:35.138Z,417.03
2022-09-07T11:18:29.744Z,413.16
2022-09-07T11:19:39.994Z,417.03
2022-09-07T11:20:20.711Z,413.16
2022-09-07T11:21:14.918Z,428.28
2022-09-07T11:22:09.755Z,444.26
2022-09-07T11:23:04.826Z,501.38
2022-09-07T11:24:00.432Z,511.38
2022-09-07T11:25:53.579Z,401.95
2022-09-07T11:26:48.125Z,410.86
2022-09-07T11:27:43.583Z,430.49
2022-09-07T11:28:38.848Z,462.44
2022-09-07T11:29:34.402Z,489.60
2022-09-07T11:30:29.917Z,504.03
2022-09-07T11:31:25.489Z,523.01
2022-09-07T11:32:20.762Z,549.29
2022-09-07T11:33:16.241Z,558.02
2022-09-07T11:34:27.030Z,528.81
2022-09-07T11:35:08.206Z,518.53
2022-09-07T11:36:02.657Z,542.14
2022-09-07T11:36:58.387Z,553.85
2022-09-07T11:37:53.754Z,542.14
2022-09-07T11:38:48.843Z,530.92
2022-09-07T11:39:44.030Z,544.80
2022-09-07T11:40:39.045Z,508.64
2022-09-07T11:41:34.057Z,518.13
2022-09-07T11:42:44.601Z,561.31
2022-09-07T11:43:25.196Z,610.09
2022-09-07T11:44:19.214Z,642.42
2022-09-07T11:45:14.316Z,655.04
2022-09-07T11:46:09.695Z,656.33
2022-09-07T11:47:04.704Z,670.86
2022-09-07T11:47:59.672Z,665.50
2022-09-07T11:48:56.152Z,655.04
2022-09-07T11:49:54.104Z,637.51
2022-09-07T11:50:47.240Z,615.16
2022-09-07T11:51:42.767Z,585.97
2022-09-07T11:52:38.282Z,580.86
2022-09-07T11:53:33.922Z,590.64
2022-09-07T11:54:29.326Z,544.80
2022-09-07T11:55:24.837Z,557.09
2022-09-07T11:56:20.621Z,578.85
2022-09-07T11:57:16.447Z,608.42
2022-09-07T11:58:11.932Z,607.32
2022-09-07T11:59:07.441Z,618.01
2022-09-07T12:00:02.864Z,607.87
2022-09-07T12:00:58.264Z,610.09
2022-09-07T12:01:53.240Z,648.67
2022-09-07T12:02:59.319Z,662.86
2022-09-07T12:03:44.598Z,664.18
2022-09-07T12:04:38.541Z,685.34
2022-09-07T12:05:33.498Z,688.17
2022-09-07T12:06:28.759Z,747.90
2022-09-07T12:07:23.812Z,784.83
2022-09-07T12:08:20.674Z,822.55
2022-09-07T12:09:16.560Z,827.14
2022-09-07T12:10:11.841Z,797.49
2022-09-07T12:11:07.338Z,769.45